createdAt,value
2019-04-29T00:02:18.867Z,99175.53
2019-04-29T00:04:48.102Z,99171.83
2019-04-29T00:07:17.472Z,99173.00
2019-04-29T00:09:46.704Z,99172.36
2019-04-29T00:12:16.243Z,99170.56
2019-04-29T00:14:47.063Z,99174.04
2019-04-29T00:17:20.366Z,99170.61
2019-04-29T00:19:53.699Z,99165.14
2019-04-29T00:22:22.861Z,99168.80
2019-04-29T00:24:52.036Z,99161.59
2019-04-29T00:27:21.325Z,99162.49
2019-04-29T00:29:50.506Z,99168.53
2019-04-29T00:32:19.755Z,99161.10
2019-04-29T00:34:48.985Z,99173.05
2019-04-29T00:37:19.936Z,99171.97
2019-04-29T00:40:02.611Z,99177.89
2019-04-29T00:42:35.999Z,99182.80
2019-04-29T00:45:06.744Z,99182.52
2019-04-29T00:47:35.925Z,99172.64
2019-04-29T00:50:06.336Z,99174.48
2019-04-29T00:52:35.628Z,99177.48
2019-04-29T00:55:09.751Z,99175.66
2019-04-29T00:57:38.972Z,99184.57
2019-04-29T01:00:08.850Z,99189.21
2019-04-29T01:02:38.071Z,99193.19
2019-04-29T01:05:07.247Z,99186.94
2019-04-29T01:07:37.243Z,99183.81
2019-04-29T01:10:06.798Z,99176.54
2019-04-29T01:12:37.397Z,99185.92
2019-04-29T01:15:06.565Z,99185.11
2019-04-29T01:17:35.807Z,99177.14
2019-04-29T01:20:07.545Z,99174.78
2019-04-29T01:22:36.790Z,99170.86
2019-04-29T01:25:06.478Z,99169.75
2019-04-29T01:27:40.234Z,99177.22
2019-04-29T01:30:12.781Z,99170.89
2019-04-29T01:32:41.975Z,99169.27
2019-04-29T01:35:11.220Z,99165.68
2019-04-29T01:37:41.911Z,99166.62
2019-04-29T01:40:15.447Z,99164.87
2019-04-29T01:42:44.999Z,99167.11
2019-04-29T01:45:14.249Z,99168.45
2019-04-29T01:47:43.477Z,99160.39
2019-04-29T01:50:12.657Z,99155.09
2019-04-29T01:52:41.832Z,99150.18
2019-04-29T01:55:11.051Z,99146.89
2019-04-29T01:57:40.233Z,99140.16
2019-04-29T02:00:12.442Z,99140.60
2019-04-29T02:02:41.964Z,99150.95
2019-04-29T02:05:11.138Z,99146.51
2019-04-29T02:07:40.315Z,99145.09
2019-04-29T02:10:14.022Z,99148.89
2019-04-29T02:12:43.208Z,99153.61
2019-04-29T02:15:12.457Z,99157.98
2019-04-29T02:17:41.682Z,99154.15
2019-04-29T02:20:10.852Z,99153.03
2019-04-29T02:22:57.911Z,99148.86
2019-04-29T02:25:28.826Z,99153.69
2019-04-29T02:27:57.965Z,99141.86
2019-04-29T02:30:33.183Z,99151.70
2019-04-29T02:33:02.355Z,99138.65
2019-04-29T02:35:31.553Z,99141.71
2019-04-29T02:38:01.098Z,99144.03
2019-04-29T02:40:48.108Z,99142.13
2019-04-29T02:43:18.918Z,99136.81
2019-04-29T02:45:48.116Z,99132.55
2019-04-29T02:48:17.462Z,99123.28
2019-04-29T02:50:46.710Z,99132.78
2019-04-29T02:53:15.900Z,99134.42
2019-04-29T02:55:46.743Z,99125.06
2019-04-29T02:58:17.602Z,99117.87
2019-04-29T03:00:57.161Z,99125.91
2019-04-29T03:03:30.984Z,99123.12
2019-04-29T03:06:03.977Z,99114.07
2019-04-29T03:08:33.254Z,99107.75
2019-04-29T03:11:02.448Z,99113.58
2019-04-29T03:13:31.643Z,99111.72
2019-04-29T03:16:00.822Z,99109.11
2019-04-29T03:18:31.640Z,99108.56
2019-04-29T03:21:05.428Z,99108.81
2019-04-29T03:23:34.666Z,99104.72
2019-04-29T03:26:03.848Z,99109.06
2019-04-29T03:28:33.022Z,99121.69
2019-04-29T03:31:02.290Z,99126.28
2019-04-29T03:33:31.488Z,99130.59
2019-04-29T03:36:00.669Z,99139.38
2019-04-29T03:38:29.884Z,99127.19
2019-04-29T03:40:59.098Z,99125.48
2019-04-29T03:43:28.241Z,99120.72
2019-04-29T03:45:57.518Z,99119.61
2019-04-29T03:48:26.703Z,99128.91
2019-04-29T03:50:55.885Z,99130.33
2019-04-29T03:53:28.256Z,99125.61
2019-04-29T03:55:56.611Z,99123.09
2019-04-29T03:58:25.783Z,99125.33
2019-04-29T04:00:57.883Z,99129.94
2019-04-29T04:03:28.699Z,99129.27
2019-04-29T04:06:11.827Z,99120.33
2019-04-29T04:08:42.649Z,99133.83
2019-04-29T04:11:11.894Z,99129.64
2019-04-29T04:13:41.113Z,99134.02
2019-04-29T04:16:11.933Z,99136.61
2019-04-29T04:18:41.132Z,99143.55
2019-04-29T04:21:10.423Z,99137.95
2019-04-29T04:23:39.618Z,99142.16
2019-04-29T04:26:08.791Z,99147.15
2019-04-29T04:28:38.059Z,99142.50
2019-04-29T04:31:07.406Z,99149.42
2019-04-29T04:33:36.584Z,99158.28
2019-04-29T04:36:05.803Z,99161.45
2019-04-29T04:38:34.973Z,99158.06
2019-04-29T04:41:05.785Z,99161.80
2019-04-29T04:43:34.987Z,99162.53
2019-04-29T04:46:04.178Z,99169.61
2019-04-29T04:48:33.486Z,99160.21
2019-04-29T04:51:02.741Z,99177.16
2019-04-29T04:53:31.920Z,99168.85
2019-04-29T04:56:01.895Z,99164.27
2019-04-29T04:58:31.193Z,99170.75
2019-04-29T05:01:00.365Z,99168.58
2019-04-29T05:03:29.610Z,99165.63
2019-04-29T05:05:58.887Z,99166.09
2019-04-29T05:08:28.114Z,99166.28
2019-04-29T05:10:57.346Z,99175.47
2019-04-29T05:13:28.463Z,99168.58
2019-04-29T05:15:57.607Z,99161.25
2019-04-29T05:18:26.880Z,99167.16
2019-04-29T05:20:56.141Z,99165.52
2019-04-29T05:23:25.446Z,99168.64
2019-04-29T05:25:54.614Z,99165.73
2019-04-29T05:28:23.907Z,99160.63
2019-04-29T05:30:53.326Z,99164.53
2019-04-29T05:33:22.578Z,99161.83
2019-04-29T05:35:56.730Z,99158.98
2019-04-29T05:38:40.920Z,99160.91
2019-04-29T05:41:10.263Z,99171.89
2019-04-29T05:43:44.031Z,99163.45
2019-04-29T05:46:21.363Z,99169.86
2019-04-29T05:48:48.628Z,99175.50
2019-04-29T05:51:35.901Z,99172.45
2019-04-29T05:54:12.473Z,99177.30
2019-04-29T05:56:41.648Z,99180.53
2019-04-29T05:59:12.900Z,99180.83
2019-04-29T06:01:47.329Z,99174.16
2019-04-29T06:04:16.426Z,99173.49
2019-04-29T06:06:45.314Z,99178.46
2019-04-29T06:09:16.769Z,99173.67
2019-04-29T06:11:45.443Z,99168.88
2019-04-29T06:14:14.778Z,99165.03
2019-04-29T06:16:43.952Z,99170.92
2019-04-29T06:19:13.209Z,99172.78
2019-04-29T06:21:42.382Z,99170.71
2019-04-29T06:24:11.618Z,99171.89
2019-04-29T06:26:43.489Z,99164.17
2019-04-29T06:29:11.888Z,99168.63
2019-04-29T06:31:41.060Z,99167.30
2019-04-29T06:34:10.260Z,99165.17
2019-04-29T06:36:39.430Z,99163.06
2019-04-29T06:39:08.702Z,99156.09
2019-04-29T06:41:40.596Z,99169.36
2019-04-29T06:44:16.148Z,99165.80
2019-04-29T06:46:41.528Z,99168.91
2019-04-29T06:49:11.042Z,99169.94
2019-04-29T06:51:40.280Z,99163.89
2019-04-29T06:54:09.453Z,99168.39
2019-04-29T06:56:38.652Z,99167.53
2019-04-29T06:59:12.134Z,99167.22
2019-04-29T07:01:38.942Z,99164.14
2019-04-29T07:04:08.192Z,99159.59
2019-04-29T07:06:37.435Z,99162.30
2019-04-29T07:09:07.440Z,99172.89
2019-04-29T07:11:38.277Z,99166.59
2019-04-29T07:14:07.707Z,99172.06
2019-04-29T07:16:36.972Z,99162.33
2019-04-29T07:19:06.217Z,99165.20
2019-04-29T07:21:35.489Z,99170.71
2019-04-29T07:24:04.834Z,99170.37
2019-04-29T07:26:34.060Z,99180.38
2019-04-29T07:29:03.336Z,99178.46
2019-04-29T07:31:33.359Z,99171.45
2019-04-29T07:34:03.486Z,99175.83
2019-04-29T07:36:32.706Z,99175.30
2019-04-29T07:39:01.971Z,99172.77
2019-04-29T07:41:31.133Z,99170.17
2019-04-29T07:44:00.360Z,99174.64
2019-04-29T07:46:36.332Z,99180.33
2019-04-29T07:49:05.770Z,99177.70
2019-04-29T07:51:39.494Z,99174.28
2019-04-29T07:54:06.062Z,99180.59
2019-04-29T07:56:37.811Z,99180.56
2019-04-29T07:59:06.307Z,99190.75
2019-04-29T08:01:35.582Z,99184.45
2019-04-29T08:04:04.790Z,99185.59
2019-04-29T08:06:38.107Z,99188.59
2019-04-29T08:09:08.110Z,99190.70
2019-04-29T08:11:37.400Z,99196.39
2019-04-29T08:14:06.573Z,99188.57
2019-04-29T08:16:35.856Z,99195.55
2019-04-29T08:19:05.425Z,99188.95
2019-04-29T08:21:34.828Z,99193.22
2019-04-29T08:24:04.126Z,99194.70
2019-04-29T08:26:33.719Z,99195.54
2019-04-29T08:29:04.248Z,99190.95
2019-04-29T08:31:33.546Z,99193.31
2019-04-29T08:34:02.721Z,99187.51
2019-04-29T08:36:31.949Z,99188.04
2019-04-29T08:39:08.269Z,99176.66
2019-04-29T08:41:32.091Z,99180.64
2019-04-29T08:44:16.323Z,99187.77
2019-04-29T08:46:51.727Z,99191.03
2019-04-29T08:49:18.204Z,99192.82
2019-04-29T08:51:47.383Z,99196.08
2019-04-29T08:54:20.062Z,99207.86
2019-04-29T08:57:02.462Z,99200.63
2019-04-29T08:59:20.708Z,99191.36
2019-04-29T09:01:50.910Z,99196.02
2019-04-29T09:04:20.194Z,99197.08
2019-04-29T09:06:49.375Z,99201.30
2019-04-29T09:09:28.432Z,99214.30
2019-04-29T09:11:49.622Z,99207.47
2019-04-29T09:14:20.489Z,99200.47
2019-04-29T09:16:49.674Z,99197.67
2019-04-29T09:19:18.870Z,99199.67
2019-04-29T09:21:49.682Z,99203.06
2019-04-29T09:24:18.907Z,99200.45
2019-04-29T09:26:58.918Z,99202.38
2019-04-29T09:29:32.688Z,99196.65
2019-04-29T09:32:03.174Z,99202.84
2019-04-29T09:34:32.341Z,99198.45
2019-04-29T09:37:01.618Z,99199.45
2019-04-29T09:39:42.502Z,99196.28
2019-04-29T09:42:14.545Z,99198.30
2019-04-29T09:45:03.310Z,99199.55
2019-04-29T09:47:32.704Z,99204.10
2019-04-29T09:50:02.017Z,99205.54
2019-04-29T09:52:31.209Z,99192.80
2019-04-29T09:55:03.966Z,99195.17
2019-04-29T09:57:31.297Z,99202.92
2019-04-29T10:00:05.109Z,99204.12
2019-04-29T10:02:34.713Z,99196.29
2019-04-29T10:05:12.349Z,99194.56
2019-04-29T10:07:41.598Z,99192.09
2019-04-29T10:10:10.960Z,99189.52
2019-04-29T10:12:40.150Z,99205.20
2019-04-29T10:15:10.988Z,99202.64
2019-04-29T10:17:45.807Z,99191.90
2019-04-29T10:20:14.411Z,99187.15
2019-04-29T10:22:43.587Z,99190.28
2019-04-29T10:25:12.888Z,99183.09
2019-04-29T10:27:42.160Z,99185.59
2019-04-29T10:30:11.463Z,99185.27
2019-04-29T10:32:42.296Z,99182.16
2019-04-29T10:35:12.292Z,99184.72
2019-04-29T10:37:41.497Z,99187.66
2019-04-29T10:40:21.112Z,99191.14
2019-04-29T10:43:11.421Z,99191.66
2019-04-29T10:45:40.757Z,99190.15
2019-04-29T10:48:17.611Z,99188.13
2019-04-29T10:50:52.201Z,99184.70
2019-04-29T10:53:19.574Z,99173.94
2019-04-29T10:55:48.739Z,99179.30
2019-04-29T10:58:22.017Z,99177.87
2019-04-29T11:01:02.777Z,99178.16
2019-04-29T11:03:31.963Z,99186.55
2019-04-29T11:06:02.124Z,99177.72
2019-04-29T11:08:39.778Z,99179.78
2019-04-29T11:11:22.178Z,99178.70
2019-04-29T11:13:49.872Z,99177.34
2019-04-29T11:16:15.769Z,99175.51
2019-04-29T11:18:44.943Z,99167.04
2019-04-29T11:21:14.240Z,99170.56
2019-04-29T11:23:45.053Z,99169.25
2019-04-29T11:26:32.400Z,99172.57
2019-04-29T11:29:05.288Z,99175.78
2019-04-29T11:31:34.260Z,99168.27
2019-04-29T11:34:20.633Z,99170.95
2019-04-29T11:36:49.902Z,99167.98
2019-04-29T11:39:19.354Z,99162.48
2019-04-29T11:41:50.119Z,99167.38
2019-04-29T11:44:21.885Z,99164.97
2019-04-29T11:46:50.822Z,99166.05
2019-04-29T11:49:21.695Z,99167.47
2019-04-29T11:52:08.524Z,99161.09
2019-04-29T11:54:23.626Z,99166.00
2019-04-29T11:56:54.140Z,99158.41
2019-04-29T11:59:37.227Z,99168.97
2019-04-29T12:02:24.306Z,99168.31
2019-04-29T12:04:56.705Z,99164.16
2019-04-29T12:07:31.850Z,99153.46
2019-04-29T12:09:57.094Z,99151.43
2019-04-29T12:12:26.493Z,99146.05
2019-04-29T12:14:57.471Z,99142.37
2019-04-29T12:17:28.355Z,99136.73
2019-04-29T12:19:59.259Z,99145.61
2019-04-29T12:22:31.008Z,99146.53
2019-04-29T12:25:00.559Z,99138.78
2019-04-29T12:27:29.930Z,99141.42
2019-04-29T12:30:06.305Z,99142.79
2019-04-29T12:32:37.264Z,99139.03
2019-04-29T12:35:16.671Z,99143.83
2019-04-29T12:37:48.119Z,99139.84
2019-04-29T12:40:36.153Z,99141.58
2019-04-29T12:43:11.200Z,99136.74
2019-04-29T12:45:42.865Z,99132.14
2019-04-29T12:48:24.354Z,99134.28
2019-04-29T12:50:47.461Z,99116.95
2019-04-29T12:53:19.727Z,99103.17
2019-04-29T12:55:53.547Z,99104.84
2019-04-29T12:58:23.894Z,99109.63
2019-04-29T13:00:59.869Z,99111.42
2019-04-29T13:03:43.472Z,99126.87
2019-04-29T13:06:23.205Z,99134.52
2019-04-29T13:08:48.400Z,99139.75
2019-04-29T13:11:21.007Z,99150.30
2019-04-29T13:13:55.484Z,99174.58
2019-04-29T13:16:42.102Z,99205.05
2019-04-29T13:19:25.017Z,99202.44
2019-04-29T13:21:55.296Z,99224.14
2019-04-29T13:24:27.065Z,99221.09
2019-04-29T13:29:45.774Z,99226.99
2019-04-29T13:32:25.334Z,99224.95
2019-04-29T13:34:54.929Z,99217.23
2019-04-29T13:37:24.168Z,99200.50
2019-04-29T13:39:55.686Z,99199.81
2019-04-29T13:42:27.237Z,99192.94
2019-04-29T13:45:07.831Z,99186.17
2019-04-29T13:47:50.484Z,99190.94
2019-04-29T13:50:39.244Z,99183.34
2019-04-29T13:53:01.884Z,99184.90
2019-04-29T13:55:47.758Z,99180.77
2019-04-29T13:58:02.170Z,99188.62
2019-04-29T14:00:36.516Z,99203.72
2019-04-29T14:03:11.654Z,99197.62
2019-04-29T14:05:41.791Z,99202.41
2019-04-29T14:08:16.328Z,99205.77
2019-04-29T14:10:46.748Z,99199.81
2019-04-29T14:13:20.592Z,99200.08
2019-04-29T14:15:47.681Z,99203.20
2019-04-29T14:18:17.110Z,99198.62
2019-04-29T14:20:47.340Z,99196.81
2019-04-29T14:23:21.743Z,99194.22
2019-04-29T14:25:52.587Z,99196.15
2019-04-29T14:28:23.016Z,99197.29
2019-04-29T14:30:55.761Z,99188.75
2019-04-29T14:33:31.653Z,99188.05
2019-04-29T14:36:03.663Z,99190.86
2019-04-29T14:38:35.980Z,99193.05
2019-04-29T14:41:04.042Z,99188.66
2019-04-29T14:43:35.279Z,99193.17
2019-04-29T14:46:24.449Z,99193.16
2019-04-29T14:49:06.199Z,99194.42
2019-04-29T14:51:38.987Z,99188.14
2019-04-29T14:54:09.259Z,99187.67
2019-04-29T14:56:38.585Z,99192.77
2019-04-29T14:59:07.958Z,99184.46
2019-04-29T15:01:38.843Z,99188.95
2019-04-29T15:04:18.089Z,99181.84
2019-04-29T15:06:40.887Z,99177.94
2019-04-29T15:09:16.731Z,99181.67
2019-04-29T15:12:01.845Z,99176.78
2019-04-29T15:14:33.801Z,99173.64
2019-04-29T15:17:12.839Z,99169.61
2019-04-29T15:19:59.558Z,99167.93
2019-04-29T15:22:36.445Z,99163.36
2019-04-29T15:25:07.531Z,99165.55
2019-04-29T15:27:36.805Z,99162.84
2019-04-29T15:30:07.718Z,99164.63
2019-04-29T15:32:37.085Z,99166.64
2019-04-29T15:35:07.097Z,99174.35
2019-04-29T15:37:36.372Z,99174.97
2019-04-29T15:40:08.733Z,99175.42
2019-04-29T15:42:37.938Z,99170.87
2019-04-29T15:45:09.022Z,99176.48
2019-04-29T15:47:41.718Z,99176.06
2019-04-29T15:50:18.707Z,99179.51
2019-04-29T15:52:41.548Z,99179.49
2019-04-29T15:55:10.810Z,99182.10
2019-04-29T15:57:40.266Z,99183.06
2019-04-29T16:00:21.224Z,99194.80
2019-04-29T16:02:43.068Z,99199.52
2019-04-29T16:05:15.778Z,99190.41
2019-04-29T16:08:02.892Z,99195.91
2019-04-29T16:10:57.712Z,99197.78
2019-04-29T16:13:27.653Z,99195.38
2019-04-29T16:15:55.023Z,99199.01
2019-04-29T16:18:24.929Z,99199.20
2019-04-29T16:20:54.329Z,99203.56
2019-04-29T16:23:23.490Z,99207.84
2019-04-29T16:25:54.622Z,99208.70
2019-04-29T16:28:31.618Z,99208.50
2019-04-29T16:30:56.362Z,99208.55
2019-04-29T16:33:25.636Z,99210.46
2019-04-29T16:35:57.725Z,99212.42
2019-04-29T16:38:26.221Z,99206.98
2019-04-29T16:40:57.444Z,99216.98
2019-04-29T16:43:28.580Z,99207.89
2019-04-29T16:45:59.434Z,99210.41
2019-04-29T16:59:18.122Z,99218.06
2019-04-29T17:01:47.362Z,99228.64
2019-04-29T17:04:16.621Z,99233.59
2019-04-29T17:07:09.995Z,99227.97
2019-04-29T17:09:34.583Z,99228.83
2019-04-29T17:12:04.317Z,99233.20
2019-04-29T17:15:01.239Z,99233.47
2019-04-29T17:17:06.224Z,99234.91
2019-04-29T17:19:35.474Z,99233.95
2019-04-29T17:24:36.567Z,99234.30
2019-04-29T17:27:17.848Z,99245.77
2019-04-29T17:30:07.729Z,99249.25
2019-04-29T17:32:44.637Z,99238.31
2019-04-29T17:35:09.390Z,99242.75
2019-04-29T17:35:16.215Z,99240.70
2019-04-29T17:37:38.908Z,99245.12
2019-04-29T17:40:09.106Z,99238.98
2019-04-29T17:42:39.980Z,99246.75
2019-04-29T17:45:12.295Z,99239.70
2019-04-29T17:47:49.158Z,99247.64
2019-04-29T17:50:29.868Z,99249.44
2019-04-29T17:52:51.010Z,99245.77
2019-04-29T17:55:21.905Z,99258.15
2019-04-29T17:57:55.875Z,99258.34
2019-04-29T18:00:42.276Z,99261.88
2019-04-29T18:03:21.634Z,99261.03
2019-04-29T18:05:58.490Z,99268.66
2019-04-29T18:08:32.543Z,99271.84
2019-04-29T18:11:08.172Z,99279.84
2019-04-29T18:13:36.086Z,99281.12
2019-04-29T18:16:17.321Z,99280.28
2019-04-29T18:18:46.470Z,99286.42
2019-04-29T18:21:19.594Z,99287.19
2019-04-29T18:23:56.779Z,99296.55
2019-04-29T18:26:28.964Z,99294.53
2019-04-29T18:29:03.758Z,99295.51
2019-04-29T18:31:30.689Z,99298.87
2019-04-29T18:34:01.057Z,99296.27
2019-04-29T18:36:30.318Z,99300.08
2019-04-29T18:38:59.660Z,99305.49
2019-04-29T18:41:28.973Z,99302.78
2019-04-29T18:44:02.906Z,99309.66
2019-04-29T18:46:31.024Z,99310.66
2019-04-29T18:49:02.992Z,99313.08
2019-04-29T18:51:32.119Z,99316.02
2019-04-29T18:54:01.300Z,99312.48
2019-04-29T18:56:32.317Z,99325.89
2019-04-29T18:59:01.429Z,99328.38
2019-04-29T19:01:31.020Z,99325.48
2019-04-29T19:04:19.249Z,99328.41
2019-04-29T19:06:51.328Z,99329.48
2019-04-29T19:09:21.312Z,99328.59
2019-04-29T19:11:53.098Z,99329.11
2019-04-29T19:14:25.554Z,99334.88
2019-04-29T19:16:56.976Z,99327.98
2019-04-29T19:19:25.227Z,99330.75
2019-04-29T19:21:55.882Z,99325.91
2019-04-29T19:24:27.458Z,99329.46
2019-04-29T19:27:00.748Z,99330.25
2019-04-29T19:29:27.268Z,99326.01
2019-04-29T19:31:56.541Z,99327.09
2019-04-29T19:34:25.780Z,99330.82
2019-04-29T19:36:59.294Z,99332.00
2019-04-29T19:39:27.131Z,99330.61
2019-04-29T19:41:56.494Z,99327.55
2019-04-29T19:44:32.619Z,99333.83
2019-04-29T19:46:59.003Z,99337.22
2019-04-29T19:49:27.659Z,99337.22
2019-04-29T19:51:56.855Z,99337.08
2019-04-29T19:54:28.371Z,99331.16
2019-04-29T19:57:03.599Z,99331.09
2019-04-29T19:59:28.715Z,99337.77
2019-04-29T20:02:05.770Z,99341.22
2019-04-29T20:04:34.317Z,99333.47
2019-04-29T20:07:08.857Z,99336.92
2019-04-29T20:09:37.981Z,99331.38
2019-04-29T20:12:12.608Z,99335.92
2019-04-29T20:14:37.567Z,99328.61
2019-04-29T20:17:27.075Z,99332.45
2019-04-29T20:20:00.857Z,99335.00
2019-04-29T20:22:30.685Z,99333.14
2019-04-29T20:25:00.082Z,99335.52
2019-04-29T20:27:30.980Z,99335.52
2019-04-29T20:30:00.538Z,99334.13
2019-04-29T20:32:31.837Z,99332.59
2019-04-29T20:35:07.082Z,99335.05
2019-04-29T20:37:31.953Z,99332.59
2019-04-29T20:40:01.471Z,99330.30
2019-04-29T20:42:30.846Z,99332.77
2019-04-29T20:45:00.246Z,99333.91
2019-04-29T20:47:37.602Z,99328.69
2019-04-29T20:50:00.640Z,99335.59
2019-04-29T20:52:51.763Z,99338.59
2019-04-29T20:55:19.015Z,99342.26
2019-04-29T20:57:52.422Z,99336.20
2019-04-29T21:00:20.191Z,99334.12
2019-04-29T21:02:50.171Z,99334.56
2019-04-29T21:05:24.569Z,99335.65
2019-04-29T21:08:02.363Z,99336.73
2019-04-29T21:10:22.952Z,99337.03
2019-04-29T21:13:16.226Z,99338.01
2019-04-29T21:16:00.685Z,99328.85
2019-04-29T21:18:29.963Z,99333.77
2019-04-29T21:20:59.669Z,99332.28
2019-04-29T21:23:35.235Z,99331.98
2019-04-29T21:26:05.439Z,99338.48
2019-04-29T21:28:38.241Z,99346.09
2019-04-29T21:31:02.944Z,99340.07
2019-04-29T21:33:32.123Z,99337.41
2019-04-29T21:36:11.956Z,99341.55
2019-04-29T21:39:01.849Z,99345.22
2019-04-29T21:41:35.859Z,99343.34
2019-04-29T21:44:06.587Z,99341.42
2019-04-29T21:46:37.320Z,99351.38
2019-04-29T21:49:11.447Z,99357.98
2019-04-29T21:51:37.594Z,99350.67
2019-04-29T21:54:09.717Z,99352.36
2019-04-29T21:56:39.798Z,99346.27
2019-04-29T21:59:12.137Z,99356.20
2019-04-29T22:01:40.080Z,99358.72
2019-04-29T22:04:09.351Z,99363.70
2019-04-29T22:06:38.665Z,99361.73
2019-04-29T22:09:08.673Z,99365.00
2019-04-29T22:11:43.221Z,99365.23
2019-04-29T22:14:09.868Z,99356.01
2019-04-29T22:16:39.710Z,99367.88
2019-04-29T22:19:11.394Z,99357.16
2019-04-29T22:21:40.773Z,99357.20
2019-04-29T22:24:10.027Z,99354.76
2019-04-29T22:26:39.342Z,99356.44
2019-04-29T22:29:08.692Z,99359.38
2019-04-29T22:31:38.478Z,99366.81
2019-04-29T22:34:09.988Z,99360.02
2019-04-29T22:36:38.914Z,99357.39
2019-04-29T22:39:08.095Z,99358.14
2019-04-29T22:41:48.675Z,99358.06
2019-04-29T22:44:21.667Z,99357.77
2019-04-29T22:46:50.083Z,99358.42
2019-04-29T22:49:24.569Z,99357.77
2019-04-29T22:51:54.528Z,99357.64
2019-04-29T22:54:23.403Z,99342.48
2019-04-29T22:56:54.664Z,99358.59
2019-04-29T22:59:25.425Z,99357.95
2019-04-29T23:01:55.653Z,99361.25
2019-04-29T23:04:25.059Z,99365.16
2019-04-29T23:06:54.236Z,99368.06
2019-04-29T23:09:23.503Z,99358.47
2019-04-29T23:11:52.743Z,99367.27
2019-04-29T23:14:21.986Z,99362.27
2019-04-29T23:16:51.238Z,99364.00
2019-04-29T23:19:20.474Z,99369.28
2019-04-29T23:22:03.334Z,99370.02
2019-04-29T23:24:36.932Z,99362.40
2019-04-29T23:27:06.339Z,99354.73
2019-04-29T23:29:38.782Z,99362.50
2019-04-29T23:32:08.421Z,99358.72
2019-04-29T23:34:37.629Z,99354.13
2019-04-29T23:37:06.945Z,99356.61
2019-04-29T23:39:37.327Z,99352.06
2019-04-29T23:42:11.977Z,99353.51
2019-04-29T23:44:42.340Z,99356.71
2019-04-29T23:47:12.146Z,99362.79
2019-04-29T23:49:42.688Z,99360.52
2019-04-29T23:52:13.467Z,99356.09
2019-04-29T23:54:45.578Z,99359.00
2019-04-29T23:57:16.313Z,99357.99
